sensor_id;sensor_type;location;lat;lon;timestamp;temperature;humidity
22635;DHT22;11484;50.858;4.384;2023-01-28T00:00:50;6.00;99.90
22635;DHT22;11484;50.858;4.384;2023-01-28T00:03:16;6.00;99.90
22635;DHT22;11484;50.858;4.384;2023-01-28T00:05:42;6.00;99.90
22635;DHT22;11484;50.858;4.384;2023-01-28T00:08:08;5.90;99.90
22635;DHT22;11484;50.858;4.384;2023-01-28T00:10:36;5.90;99.90
22635;DHT22;11484;50.858;4.384;2023-01-28T00:13:04;5.90;99.90
22635;DHT22;11484;50.858;4.384;2023-01-28T00:15:30;6.10;99.90
22635;DHT22;11484;50.858;4.384;2023-01-28T00:17:56;6.20;99.90
22635;DHT22;11484;50.858;4.384;2023-01-28T00:20:21;6.30;99.90
22635;DHT22;11484;50.858;4.384;2023-01-28T00:22:47;6.30;99.90
22635;DHT22;11484;50.858;4.384;2023-01-28T00:25:14;6.30;99.90
22635;DHT22;11484;50.858;4.384;2023-01-28T00:27:39;6.10;99.90
22635;DHT22;11484;50.858;4.384;2023-01-28T00:30:06;6.10;99.90
22635;DHT22;11484;50.858;4.384;2023-01-28T00:32:32;6.10;99.90
22635;DHT22;11484;50.858;4.384;2023-01-28T00:34:58;6.10;99.90
22635;DHT22;11484;50.858;4.384;2023-01-28T00:37:23;6.30;99.90
22635;DHT22;11484;50.858;4.384;2023-01-28T00:39:49;6.40;99.90
22635;DHT22;11484;50.858;4.384;2023-01-28T00:42:14;6.30;99.90
22635;DHT22;11484;50.858;4.384;2023-01-28T00:44:41;6.40;99.90
22635;DHT22;11484;50.858;4.384;2023-01-28T00:47:06;6.40;99.90
22635;DHT22;11484;50.858;4.384;2023-01-28T00:49:32;6.40;99.90
22635;DHT22;11484;50.858;4.384;2023-01-28T00:51:58;6.20;99.90
22635;DHT22;11484;50.858;4.384;2023-01-28T00:54:24;6.10;99.90
22635;DHT22;11484;50.858;4.384;2023-01-28T00:56:49;6.10;99.90
22635;DHT22;11484;50.858;4.384;2023-01-28T00:59:18;6.10;99.90
22635;DHT22;11484;50.858;4.384;2023-01-28T01:01:43;6.20;99.90
22635;DHT22;11484;50.858;4.384;2023-01-28T01:04:09;6.20;99.90
22635;DHT22;11484;50.858;4.384;2023-01-28T01:06:37;6.00;99.90
22635;DHT22;11484;50.858;4.384;2023-01-28T01:09:05;6.00;99.90
22635;DHT22;11484;50.858;4.384;2023-01-28T01:11:31;5.80;99.90
22635;DHT22;11484;50.858;4.384;2023-01-28T01:13:58;5.90;99.90
22635;DHT22;11484;50.858;4.384;2023-01-28T01:16:28;5.90;99.90
22635;DHT22;11484;50.858;4.384;2023-01-28T01:18:56;5.90;99.90
22635;DHT22;11484;50.858;4.384;2023-01-28T01:21:25;5.90;99.90
22635;DHT22;11484;50.858;4.384;2023-01-28T01:23:51;6.00;99.90
22635;DHT22;11484;50.858;4.384;2023-01-28T01:26:18;6.10;99.90
22635;DHT22;11484;50.858;4.384;2023-01-28T01:28:44;6.10;99.90
22635;DHT22;11484;50.858;4.384;2023-01-28T01:31:15;6.10;99.90
22635;DHT22;11484;50.858;4.384;2023-01-28T01:33:42;6.20;99.90
22635;DHT22;11484;50.858;4.384;2023-01-28T01:36:09;6.10;99.90
22635;DHT22;11484;50.858;4.384;2023-01-28T01:38:35;6.20;99.90
22635;DHT22;11484;50.858;4.384;2023-01-28T01:41:02;6.30;99.90
22635;DHT22;11484;50.858;4.384;2023-01-28T01:48:54;6.20;99.90
22635;DHT22;11484;50.858;4.384;2023-01-28T01:51:25;6.10;99.90
22635;DHT22;11484;50.858;4.384;2023-01-28T01:53:53;6.00;99.90
22635;DHT22;11484;50.858;4.384;2023-01-28T01:56:22;5.90;99.90
22635;DHT22;11484;50.858;4.384;2023-01-28T01:58:52;5.90;99.90
22635;DHT22;11484;50.858;4.384;2023-01-28T02:01:22;5.90;99.90
22635;DHT22;11484;50.858;4.384;2023-01-28T02:03:54;5.90;99.90
22635;DHT22;11484;50.858;4.384;2023-01-28T02:06:21;5.90;99.90
22635;DHT22;11484;50.858;4.384;2023-01-28T02:08:47;5.90;99.90
22635;DHT22;11484;50.858;4.384;2023-01-28T02:11:13;6.00;99.90
22635;DHT22;11484;50.858;4.384;2023-01-28T02:13:43;5.80;99.90
22635;DHT22;11484;50.858;4.384;2023-01-28T02:16:11;5.80;99.90
22635;DHT22;11484;50.858;4.384;2023-01-28T02:18:37;5.90;99.90
22635;DHT22;11484;50.858;4.384;2023-01-28T02:29:26;6.10;99.90
22635;DHT22;11484;50.858;4.384;2023-01-28T02:34:41;5.80;99.90
22635;DHT22;11484;50.858;4.384;2023-01-28T02:39:50;5.60;99.90
22635;DHT22;11484;50.858;4.384;2023-01-28T02:42:22;5.60;99.90
22635;DHT22;11484;50.858;4.384;2023-01-28T02:44:49;5.70;99.90
22635;DHT22;11484;50.858;4.384;2023-01-28T02:47:15;5.70;99.90
22635;DHT22;11484;50.858;4.384;2023-01-28T02:50:08;5.70;99.90
22635;DHT22;11484;50.858;4.384;2023-01-28T03:00:32;5.70;99.90
22635;DHT22;11484;50.858;4.384;2023-01-28T03:03:14;5.80;99.90
22635;DHT22;11484;50.858;4.384;2023-01-28T03:05:46;5.80;99.90
22635;DHT22;11484;50.858;4.384;2023-01-28T03:08:35;5.80;99.90
22635;DHT22;11484;50.858;4.384;2023-01-28T03:11:21;5.80;99.90
22635;DHT22;11484;50.858;4.384;2023-01-28T03:14:07;5.80;99.90
22635;DHT22;11484;50.858;4.384;2023-01-28T03:16:52;5.90;99.90
22635;DHT22;11484;50.858;4.384;2023-01-28T03:19:37;5.90;99.90
22635;DHT22;11484;50.858;4.384;2023-01-28T03:22:23;5.80;99.90
22635;DHT22;11484;50.858;4.384;2023-01-28T03:25:10;5.70;99.90
22635;DHT22;11484;50.858;4.384;2023-01-28T03:28:01;5.80;99.90
22635;DHT22;11484;50.858;4.384;2023-01-28T03:30:48;5.80;99.90
22635;DHT22;11484;50.858;4.384;2023-01-28T03:33:35;5.70;99.90
22635;DHT22;11484;50.858;4.384;2023-01-28T03:36:20;5.60;99.90
22635;DHT22;11484;50.858;4.384;2023-01-28T03:39:04;5.60;99.90
22635;DHT22;11484;50.858;4.384;2023-01-28T03:41:29;5.60;99.90
22635;DHT22;11484;50.858;4.384;2023-01-28T03:43:55;5.50;99.90
22635;DHT22;11484;50.858;4.384;2023-01-28T03:46:21;5.50;99.90
22635;DHT22;11484;50.858;4.384;2023-01-28T03:48:47;5.60;99.90
22635;DHT22;11484;50.858;4.384;2023-01-28T03:51:12;5.60;99.90
22635;DHT22;11484;50.858;4.384;2023-01-28T03:53:38;5.60;99.90
22635;DHT22;11484;50.858;4.384;2023-01-28T03:56:05;5.50;99.90
22635;DHT22;11484;50.858;4.384;2023-01-28T03:58:31;5.60;99.90
22635;DHT22;11484;50.858;4.384;2023-01-28T04:01:15;5.60;99.90
22635;DHT22;11484;50.858;4.384;2023-01-28T04:03:41;5.50;99.90
22635;DHT22;11484;50.858;4.384;2023-01-28T04:06:08;5.50;99.90
22635;DHT22;11484;50.858;4.384;2023-01-28T04:08:34;5.50;99.90
22635;DHT22;11484;50.858;4.384;2023-01-28T04:11:00;5.40;99.90
22635;DHT22;11484;50.858;4.384;2023-01-28T04:13:43;5.50;99.90
22635;DHT22;11484;50.858;4.384;2023-01-28T04:16:10;5.50;99.90
22635;DHT22;11484;50.858;4.384;2023-01-28T04:18:36;5.40;99.90
22635;DHT22;11484;50.858;4.384;2023-01-28T04:21:01;5.40;99.90
22635;DHT22;11484;50.858;4.384;2023-01-28T04:23:27;5.30;99.90
22635;DHT22;11484;50.858;4.384;2023-01-28T04:25:54;5.20;99.90
22635;DHT22;11484;50.858;4.384;2023-01-28T04:28:19;5.20;99.90
22635;DHT22;11484;50.858;4.384;2023-01-28T04:30:45;5.30;99.90
22635;DHT22;11484;50.858;4.384;2023-01-28T04:33:11;5.30;99.90
22635;DHT22;11484;50.858;4.384;2023-01-28T04:35:36;5.20;99.90
22635;DHT22;11484;50.858;4.384;2023-01-28T04:38:02;5.30;99.90
22635;DHT22;11484;50.858;4.384;2023-01-28T04:40:28;5.40;99.90
22635;DHT22;11484;50.858;4.384;2023-01-28T04:42:55;5.50;99.90
22635;DHT22;11484;50.858;4.384;2023-01-28T04:45:21;5.50;99.90
22635;DHT22;11484;50.858;4.384;2023-01-28T04:47:46;5.40;99.90
22635;DHT22;11484;50.858;4.384;2023-01-28T04:50:12;5.30;99.90
22635;DHT22;11484;50.858;4.384;2023-01-28T04:52:38;5.40;99.90
22635;DHT22;11484;50.858;4.384;2023-01-28T04:55:04;5.40;99.90
22635;DHT22;11484;50.858;4.384;2023-01-28T04:57:30;5.50;99.90
22635;DHT22;11484;50.858;4.384;2023-01-28T04:59:55;5.50;99.90
22635;DHT22;11484;50.858;4.384;2023-01-28T05:02:21;5.60;99.90
22635;DHT22;11484;50.858;4.384;2023-01-28T05:04:47;5.50;99.90
22635;DHT22;11484;50.858;4.384;2023-01-28T05:07:13;5.60;99.90
22635;DHT22;11484;50.858;4.384;2023-01-28T05:09:39;5.70;99.90
22635;DHT22;11484;50.858;4.384;2023-01-28T05:12:05;5.80;99.90
22635;DHT22;11484;50.858;4.384;2023-01-28T05:14:30;5.90;99.90
22635;DHT22;11484;50.858;4.384;2023-01-28T05:16:57;5.90;99.90
22635;DHT22;11484;50.858;4.384;2023-01-28T05:19:22;5.80;99.90
22635;DHT22;11484;50.858;4.384;2023-01-28T05:21:48;5.70;99.90
22635;DHT22;11484;50.858;4.384;2023-01-28T05:24:14;5.60;99.90
22635;DHT22;11484;50.858;4.384;2023-01-28T05:26:40;5.50;99.90
22635;DHT22;11484;50.858;4.384;2023-01-28T05:29:06;5.50;99.90
22635;DHT22;11484;50.858;4.384;2023-01-28T05:31:32;5.50;99.90
22635;DHT22;11484;50.858;4.384;2023-01-28T05:33:57;5.60;99.90
22635;DHT22;11484;50.858;4.384;2023-01-28T05:36:23;5.50;99.90
22635;DHT22;11484;50.858;4.384;2023-01-28T05:38:49;5.50;99.90
22635;DHT22;11484;50.858;4.384;2023-01-28T05:41:15;5.40;99.90
22635;DHT22;11484;50.858;4.384;2023-01-28T05:43:40;5.40;99.90
22635;DHT22;11484;50.858;4.384;2023-01-28T05:46:06;5.20;99.90
22635;DHT22;11484;50.858;4.384;2023-01-28T05:48:32;5.20;99.90
22635;DHT22;11484;50.858;4.384;2023-01-28T05:50:57;5.10;99.90
22635;DHT22;11484;50.858;4.384;2023-01-28T05:53:23;5.00;99.90
22635;DHT22;11484;50.858;4.384;2023-01-28T05:55:50;5.00;99.90
22635;DHT22;11484;50.858;4.384;2023-01-28T05:58:16;5.00;99.90
22635;DHT22;11484;50.858;4.384;2023-01-28T06:00:43;5.10;99.90
22635;DHT22;11484;50.858;4.384;2023-01-28T06:03:09;5.00;99.90
22635;DHT22;11484;50.858;4.384;2023-01-28T06:05:34;5.10;99.90
22635;DHT22;11484;50.858;4.384;2023-01-28T06:08:00;5.20;99.90
22635;DHT22;11484;50.858;4.384;2023-01-28T06:10:26;5.30;99.90
22635;DHT22;11484;50.858;4.384;2023-01-28T06:12:51;5.30;99.90
22635;DHT22;11484;50.858;4.384;2023-01-28T06:15:17;5.40;99.90
22635;DHT22;11484;50.858;4.384;2023-01-28T06:17:43;5.40;99.90
22635;DHT22;11484;50.858;4.384;2023-01-28T06:20:09;5.50;99.90
22635;DHT22;11484;50.858;4.384;2023-01-28T06:22:35;5.50;99.90
22635;DHT22;11484;50.858;4.384;2023-01-28T06:25:01;5.20;99.90
22635;DHT22;11484;50.858;4.384;2023-01-28T06:27:26;5.10;99.90
22635;DHT22;11484;50.858;4.384;2023-01-28T06:29:52;5.00;99.90
22635;DHT22;11484;50.858;4.384;2023-01-28T06:32:18;4.90;99.90
22635;DHT22;11484;50.858;4.384;2023-01-28T06:34:44;4.90;99.90
22635;DHT22;11484;50.858;4.384;2023-01-28T06:37:13;5.00;99.90
22635;DHT22;11484;50.858;4.384;2023-01-28T06:39:39;5.10;99.90
22635;DHT22;11484;50.858;4.384;2023-01-28T06:42:05;5.00;99.90
22635;DHT22;11484;50.858;4.384;2023-01-28T06:44:31;4.90;99.90
22635;DHT22;11484;50.858;4.384;2023-01-28T06:46:57;4.90;99.90
22635;DHT22;11484;50.858;4.384;2023-01-28T06:49:22;5.00;99.90
22635;DHT22;11484;50.858;4.384;2023-01-28T06:51:48;4.90;99.90
22635;DHT22;11484;50.858;4.384;2023-01-28T06:54:14;4.80;99.90
22635;DHT22;11484;50.858;4.384;2023-01-28T06:56:39;4.70;99.90
22635;DHT22;11484;50.858;4.384;2023-01-28T06:59:05;4.70;99.90
22635;DHT22;11484;50.858;4.384;2023-01-28T07:01:32;4.70;99.90
22635;DHT22;11484;50.858;4.384;2023-01-28T07:03:57;4.80;99.90
22635;DHT22;11484;50.858;4.384;2023-01-28T07:06:23;4.90;99.90
22635;DHT22;11484;50.858;4.384;2023-01-28T07:08:49;4.90;99.90
22635;DHT22;11484;50.858;4.384;2023-01-28T07:11:15;4.90;99.90
22635;DHT22;11484;50.858;4.384;2023-01-28T07:13:41;4.90;99.90
22635;DHT22;11484;50.858;4.384;2023-01-28T07:16:08;4.90;99.90
22635;DHT22;11484;50.858;4.384;2023-01-28T07:18:34;5.00;99.90
22635;DHT22;11484;50.858;4.384;2023-01-28T07:20:59;5.10;99.90
22635;DHT22;11484;50.858;4.384;2023-01-28T07:23:25;5.10;99.90
22635;DHT22;11484;50.858;4.384;2023-01-28T07:25:51;5.10;99.90
22635;DHT22;11484;50.858;4.384;2023-01-28T07:28:17;5.10;99.90
22635;DHT22;11484;50.858;4.384;2023-01-28T07:30:52;5.10;99.90
22635;DHT22;11484;50.858;4.384;2023-01-28T07:33:17;5.20;99.90
22635;DHT22;11484;50.858;4.384;2023-01-28T07:35:44;5.10;99.90
22635;DHT22;11484;50.858;4.384;2023-01-28T07:38:10;5.10;99.90
22635;DHT22;11484;50.858;4.384;2023-01-28T07:40:36;5.00;99.90
22635;DHT22;11484;50.858;4.384;2023-01-28T07:43:02;4.90;99.90
22635;DHT22;11484;50.858;4.384;2023-01-28T07:45:28;4.90;99.90
22635;DHT22;11484;50.858;4.384;2023-01-28T07:47:59;4.80;99.90
22635;DHT22;11484;50.858;4.384;2023-01-28T07:50:26;4.90;99.90
22635;DHT22;11484;50.858;4.384;2023-01-28T07:52:54;4.80;99.90
22635;DHT22;11484;50.858;4.384;2023-01-28T07:55:20;4.80;99.90
22635;DHT22;11484;50.858;4.384;2023-01-28T07:57:49;4.80;99.90
22635;DHT22;11484;50.858;4.384;2023-01-28T08:00:16;4.70;99.90
22635;DHT22;11484;50.858;4.384;2023-01-28T08:02:42;4.70;99.90
22635;DHT22;11484;50.858;4.384;2023-01-28T08:05:14;4.70;99.90
22635;DHT22;11484;50.858;4.384;2023-01-28T08:07:40;4.80;99.90
22635;DHT22;11484;50.858;4.384;2023-01-28T08:10:06;4.80;99.90
22635;DHT22;11484;50.858;4.384;2023-01-28T08:12:32;4.70;99.90
22635;DHT22;11484;50.858;4.384;2023-01-28T08:14:57;4.40;99.90
22635;DHT22;11484;50.858;4.384;2023-01-28T08:17:23;4.40;99.90
22635;DHT22;11484;50.858;4.384;2023-01-28T08:19:49;4.30;99.90
22635;DHT22;11484;50.858;4.384;2023-01-28T08:22:14;4.30;99.90
22635;DHT22;11484;50.858;4.384;2023-01-28T08:24:40;4.40;99.90
22635;DHT22;11484;50.858;4.384;2023-01-28T08:27:06;4.50;99.90
22635;DHT22;11484;50.858;4.384;2023-01-28T08:29:31;4.60;99.90
22635;DHT22;11484;50.858;4.384;2023-01-28T08:31:57;4.60;99.90
22635;DHT22;11484;50.858;4.384;2023-01-28T08:34:23;4.60;99.90
22635;DHT22;11484;50.858;4.384;2023-01-28T08:36:49;4.60;99.90
22635;DHT22;11484;50.858;4.384;2023-01-28T08:39:14;4.40;99.90
22635;DHT22;11484;50.858;4.384;2023-01-28T08:41:40;4.60;99.90
22635;DHT22;11484;50.858;4.384;2023-01-28T08:44:05;4.60;99.90
22635;DHT22;11484;50.858;4.384;2023-01-28T08:46:31;4.80;99.90
22635;DHT22;11484;50.858;4.384;2023-01-28T08:48:58;4.70;99.90
22635;DHT22;11484;50.858;4.384;2023-01-28T08:51:23;4.60;99.90
22635;DHT22;11484;50.858;4.384;2023-01-28T08:53:49;4.50;99.90
22635;DHT22;11484;50.858;4.384;2023-01-28T08:56:15;4.20;99.90
22635;DHT22;11484;50.858;4.384;2023-01-28T08:58:40;4.40;99.90
22635;DHT22;11484;50.858;4.384;2023-01-28T09:01:06;4.50;99.90
22635;DHT22;11484;50.858;4.384;2023-01-28T09:03:32;4.60;99.90
22635;DHT22;11484;50.858;4.384;2023-01-28T09:06:03;4.70;99.90
22635;DHT22;11484;50.858;4.384;2023-01-28T09:08:30;4.80;99.90
22635;DHT22;11484;50.858;4.384;2023-01-28T09:10:57;4.80;99.90
22635;DHT22;11484;50.858;4.384;2023-01-28T09:13:23;4.70;99.90
22635;DHT22;11484;50.858;4.384;2023-01-28T09:15:49;4.60;99.90
22635;DHT22;11484;50.858;4.384;2023-01-28T09:18:16;4.60;99.90
22635;DHT22;11484;50.858;4.384;2023-01-28T09:20:42;4.50;99.90
22635;DHT22;11484;50.858;4.384;2023-01-28T09:23:09;4.60;99.90
22635;DHT22;11484;50.858;4.384;2023-01-28T09:25:35;4.80;99.90
22635;DHT22;11484;50.858;4.384;2023-01-28T09:28:01;5.00;99.90
22635;DHT22;11484;50.858;4.384;2023-01-28T09:30:27;4.90;99.90
22635;DHT22;11484;50.858;4.384;2023-01-28T09:32:55;4.80;99.90
22635;DHT22;11484;50.858;4.384;2023-01-28T09:35:21;4.80;99.90
22635;DHT22;11484;50.858;4.384;2023-01-28T09:37:48;4.90;99.90
22635;DHT22;11484;50.858;4.384;2023-01-28T09:40:36;5.00;99.90
22635;DHT22;11484;50.858;4.384;2023-01-28T09:45:40;5.20;99.90
22635;DHT22;11484;50.858;4.384;2023-01-28T09:48:15;5.30;99.90
22635;DHT22;11484;50.858;4.384;2023-01-28T09:50:45;5.40;99.90
22635;DHT22;11484;50.858;4.384;2023-01-28T09:53:21;5.30;99.90
22635;DHT22;11484;50.858;4.384;2023-01-28T09:55:55;5.10;99.90
22635;DHT22;11484;50.858;4.384;2023-01-28T09:58:21;5.10;99.90
22635;DHT22;11484;50.858;4.384;2023-01-28T10:17:43;5.00;99.90
22635;DHT22;11484;50.858;4.384;2023-01-28T10:22:46;5.00;99.90
22635;DHT22;11484;50.858;4.384;2023-01-28T10:25:21;4.90;99.90
22635;DHT22;11484;50.858;4.384;2023-01-28T10:27:48;4.90;99.90
22635;DHT22;11484;50.858;4.384;2023-01-28T10:30:22;4.70;99.90
22635;DHT22;11484;50.858;4.384;2023-01-28T10:32:52;4.80;99.90
22635;DHT22;11484;50.858;4.384;2023-01-28T10:35:19;4.90;99.90
22635;DHT22;11484;50.858;4.384;2023-01-28T10:37:45;5.00;99.90
22635;DHT22;11484;50.858;4.384;2023-01-28T10:40:14;4.90;99.90
22635;DHT22;11484;50.858;4.384;2023-01-28T10:42:41;4.80;99.90
22635;DHT22;11484;50.858;4.384;2023-01-28T10:45:21;4.80;99.90
22635;DHT22;11484;50.858;4.384;2023-01-28T10:48:54;4.80;99.90
22635;DHT22;11484;50.858;4.384;2023-01-28T10:50:54;4.80;99.90
22635;DHT22;11484;50.858;4.384;2023-01-28T10:53:37;5.00;99.90
22635;DHT22;11484;50.858;4.384;2023-01-28T10:56:06;5.00;99.90
22635;DHT22;11484;50.858;4.384;2023-01-28T10:58:35;5.10;99.90
22635;DHT22;11484;50.858;4.384;2023-01-28T11:01:05;5.00;99.90
22635;DHT22;11484;50.858;4.384;2023-01-28T11:03:31;5.10;99.90
22635;DHT22;11484;50.858;4.384;2023-01-28T11:05:59;5.20;99.90
22635;DHT22;11484;50.858;4.384;2023-01-28T11:08:27;5.10;99.90
22635;DHT22;11484;50.858;4.384;2023-01-28T11:10:54;5.00;99.90
22635;DHT22;11484;50.858;4.384;2023-01-28T11:13:23;4.90;99.90
22635;DHT22;11484;50.858;4.384;2023-01-28T11:16:03;4.80;99.90
22635;DHT22;11484;50.858;4.384;2023-01-28T11:18:37;4.80;99.90
22635;DHT22;11484;50.858;4.384;2023-01-28T11:21:06;4.90;99.90
22635;DHT22;11484;50.858;4.384;2023-01-28T11:26:57;4.80;99.90
22635;DHT22;11484;50.858;4.384;2023-01-28T11:29:27;4.60;99.90
22635;DHT22;11484;50.858;4.384;2023-01-28T11:31:55;4.60;99.90
22635;DHT22;11484;50.858;4.384;2023-01-28T11:34:28;4.70;99.90
22635;DHT22;11484;50.858;4.384;2023-01-28T11:37:02;4.70;99.90
22635;DHT22;11484;50.858;4.384;2023-01-28T11:39:30;4.70;99.90
22635;DHT22;11484;50.858;4.384;2023-01-28T11:42:16;4.80;99.90
22635;DHT22;11484;50.858;4.384;2023-01-28T11:44:54;4.90;99.90
22635;DHT22;11484;50.858;4.384;2023-01-28T12:00:39;4.70;99.90
22635;DHT22;11484;50.858;4.384;2023-01-28T12:03:31;4.80;99.90
22635;DHT22;11484;50.858;4.384;2023-01-28T12:20:40;5.10;99.90
22635;DHT22;11484;50.858;4.384;2023-01-28T12:23:28;5.00;99.90
22635;DHT22;11484;50.858;4.384;2023-01-28T12:26:01;4.70;99.90
22635;DHT22;11484;50.858;4.384;2023-01-28T12:28:56;4.80;99.90
22635;DHT22;11484;50.858;4.384;2023-01-28T12:34:31;4.70;99.90
22635;DHT22;11484;50.858;4.384;2023-01-28T12:37:14;4.70;99.90
22635;DHT22;11484;50.858;4.384;2023-01-28T12:42:41;4.80;99.90
22635;DHT22;11484;50.858;4.384;2023-01-28T12:45:37;4.90;99.90
22635;DHT22;11484;50.858;4.384;2023-01-28T12:48:36;5.10;99.90
22635;DHT22;11484;50.858;4.384;2023-01-28T12:51:03;5.10;99.90
22635;DHT22;11484;50.858;4.384;2023-01-28T12:56:11;5.00;99.90
22635;DHT22;11484;50.858;4.384;2023-01-28T13:01:16;5.00;99.90
22635;DHT22;11484;50.858;4.384;2023-01-28T13:07:01;5.00;99.90
22635;DHT22;11484;50.858;4.384;2023-01-28T13:09:30;5.00;99.90
22635;DHT22;11484;50.858;4.384;2023-01-28T13:11:59;4.90;99.90
22635;DHT22;11484;50.858;4.384;2023-01-28T13:14:30;5.10;99.90
22635;DHT22;11484;50.858;4.384;2023-01-28T13:17:24;5.30;99.90
22635;DHT22;11484;50.858;4.384;2023-01-28T13:19:50;5.40;99.90
22635;DHT22;11484;50.858;4.384;2023-01-28T13:22:43;5.40;99.90
22635;DHT22;11484;50.858;4.384;2023-01-28T13:25:25;5.40;99.90
22635;DHT22;11484;50.858;4.384;2023-01-28T13:28:01;5.50;99.90
22635;DHT22;11484;50.858;4.384;2023-01-28T13:30:46;5.50;99.90
22635;DHT22;11484;50.858;4.384;2023-01-28T13:33:29;5.60;99.90
22635;DHT22;11484;50.858;4.384;2023-01-28T13:35:55;5.60;99.90
22635;DHT22;11484;50.858;4.384;2023-01-28T13:38:23;5.40;99.90
22635;DHT22;11484;50.858;4.384;2023-01-28T13:40:57;5.40;99.90
22635;DHT22;11484;50.858;4.384;2023-01-28T13:46:07;5.40;99.90
22635;DHT22;11484;50.858;4.384;2023-01-28T13:48:49;5.50;99.90
22635;DHT22;11484;50.858;4.384;2023-01-28T13:51:36;5.50;99.90
22635;DHT22;11484;50.858;4.384;2023-01-28T14:02:24;5.40;99.90
22635;DHT22;11484;50.858;4.384;2023-01-28T14:07:39;5.30;99.90
22635;DHT22;11484;50.858;4.384;2023-01-28T14:13:28;5.40;99.90
22635;DHT22;11484;50.858;4.384;2023-01-28T14:18:42;5.70;99.90
22635;DHT22;11484;50.858;4.384;2023-01-28T14:21:17;5.90;99.90
22635;DHT22;11484;50.858;4.384;2023-01-28T14:23:55;5.70;99.90
22635;DHT22;11484;50.858;4.384;2023-01-28T14:26:43;5.80;99.90
22635;DHT22;11484;50.858;4.384;2023-01-28T14:32:12;6.00;99.90
22635;DHT22;11484;50.858;4.384;2023-01-28T14:34:40;6.10;99.90
22635;DHT22;11484;50.858;4.384;2023-01-28T14:37:15;6.20;99.90
22635;DHT22;11484;50.858;4.384;2023-01-28T14:39:45;5.80;99.90
22635;DHT22;11484;50.858;4.384;2023-01-28T14:42:21;5.60;99.90
22635;DHT22;11484;50.858;4.384;2023-01-28T14:45:03;5.70;99.90
22635;DHT22;11484;50.858;4.384;2023-01-28T14:58:49;5.70;99.90
22635;DHT22;11484;50.858;4.384;2023-01-28T15:01:34;5.80;99.90
22635;DHT22;11484;50.858;4.384;2023-01-28T15:04:00;5.90;99.90
22635;DHT22;11484;50.858;4.384;2023-01-28T15:06:33;5.70;99.90
22635;DHT22;11484;50.858;4.384;2023-01-28T15:09:08;5.60;99.90
22635;DHT22;11484;50.858;4.384;2023-01-28T15:11:37;5.60;99.90
22635;DHT22;11484;50.858;4.384;2023-01-28T15:14:07;5.60;99.90
22635;DHT22;11484;50.858;4.384;2023-01-28T15:16:38;5.70;99.90
22635;DHT22;11484;50.858;4.384;2023-01-28T15:19:06;5.70;99.90
22635;DHT22;11484;50.858;4.384;2023-01-28T15:21:34;5.70;99.90
22635;DHT22;11484;50.858;4.384;2023-01-28T15:24:01;5.80;99.90
22635;DHT22;11484;50.858;4.384;2023-01-28T15:26:33;5.80;99.90
22635;DHT22;11484;50.858;4.384;2023-01-28T15:29:00;6.00;99.90
22635;DHT22;11484;50.858;4.384;2023-01-28T15:31:28;6.00;99.90
22635;DHT22;11484;50.858;4.384;2023-01-28T15:34:10;6.10;99.90
22635;DHT22;11484;50.858;4.384;2023-01-28T15:36:39;6.00;99.90
22635;DHT22;11484;50.858;4.384;2023-01-28T15:39:17;6.10;99.90
22635;DHT22;11484;50.858;4.384;2023-01-28T15:41:51;5.90;99.90
22635;DHT22;11484;50.858;4.384;2023-01-28T15:47:13;5.80;99.90
22635;DHT22;11484;50.858;4.384;2023-01-28T15:49:46;5.70;99.90
22635;DHT22;11484;50.858;4.384;2023-01-28T15:52:13;5.70;99.90
22635;DHT22;11484;50.858;4.384;2023-01-28T15:54:45;5.70;99.90
22635;DHT22;11484;50.858;4.384;2023-01-28T15:57:27;5.70;99.90
22635;DHT22;11484;50.858;4.384;2023-01-28T16:02:45;5.50;99.90
22635;DHT22;11484;50.858;4.384;2023-01-28T16:05:30;5.40;99.90
22635;DHT22;11484;50.858;4.384;2023-01-28T16:07:58;5.30;99.90
22635;DHT22;11484;50.858;4.384;2023-01-28T16:10:29;5.30;99.90
22635;DHT22;11484;50.858;4.384;2023-01-28T16:13:22;5.30;99.90
22635;DHT22;11484;50.858;4.384;2023-01-28T16:15:57;5.50;99.90
22635;DHT22;11484;50.858;4.384;2023-01-28T16:21:24;5.60;99.90
22635;DHT22;11484;50.858;4.384;2023-01-28T16:23:57;5.80;99.90
22635;DHT22;11484;50.858;4.384;2023-01-28T16:26:25;5.80;99.90
22635;DHT22;11484;50.858;4.384;2023-01-28T16:28:51;5.70;99.90
22635;DHT22;11484;50.858;4.384;2023-01-28T16:31:18;5.80;99.90
22635;DHT22;11484;50.858;4.384;2023-01-28T16:33:44;5.70;99.90
22635;DHT22;11484;50.858;4.384;2023-01-28T16:36:15;5.50;99.90
22635;DHT22;11484;50.858;4.384;2023-01-28T16:38:42;5.40;99.90
22635;DHT22;11484;50.858;4.384;2023-01-28T16:41:28;5.50;99.90
22635;DHT22;11484;50.858;4.384;2023-01-28T16:43:56;5.60;99.90
22635;DHT22;11484;50.858;4.384;2023-01-28T16:46:26;5.60;99.90
22635;DHT22;11484;50.858;4.384;2023-01-28T16:48:52;5.60;99.90
22635;DHT22;11484;50.858;4.384;2023-01-28T16:51:18;5.70;99.90
22635;DHT22;11484;50.858;4.384;2023-01-28T16:53:46;5.80;99.90
22635;DHT22;11484;50.858;4.384;2023-01-28T16:56:17;5.80;99.90
22635;DHT22;11484;50.858;4.384;2023-01-28T16:58:44;5.80;99.90
22635;DHT22;11484;50.858;4.384;2023-01-28T17:01:09;5.80;99.90
22635;DHT22;11484;50.858;4.384;2023-01-28T17:03:37;5.80;99.90
22635;DHT22;11484;50.858;4.384;2023-01-28T17:06:03;5.60;99.90
22635;DHT22;11484;50.858;4.384;2023-01-28T17:08:31;5.60;99.90
22635;DHT22;11484;50.858;4.384;2023-01-28T17:10:57;5.50;99.90
22635;DHT22;11484;50.858;4.384;2023-01-28T17:13:23;5.50;99.90
22635;DHT22;11484;50.858;4.384;2023-01-28T17:15:49;5.50;99.90
22635;DHT22;11484;50.858;4.384;2023-01-28T17:18:15;5.50;99.90
22635;DHT22;11484;50.858;4.384;2023-01-28T17:20:41;5.40;99.90
22635;DHT22;11484;50.858;4.384;2023-01-28T17:23:12;5.30;99.90
22635;DHT22;11484;50.858;4.384;2023-01-28T17:25:38;5.30;99.90
22635;DHT22;11484;50.858;4.384;2023-01-28T17:28:06;5.20;99.90
22635;DHT22;11484;50.858;4.384;2023-01-28T17:30:32;5.10;99.90
22635;DHT22;11484;50.858;4.384;2023-01-28T17:32:58;5.00;99.90
22635;DHT22;11484;50.858;4.384;2023-01-28T17:35:23;4.80;99.90
22635;DHT22;11484;50.858;4.384;2023-01-28T17:37:53;4.80;99.90
22635;DHT22;11484;50.858;4.384;2023-01-28T17:40:19;4.90;99.90
22635;DHT22;11484;50.858;4.384;2023-01-28T17:42:45;4.90;99.90
22635;DHT22;11484;50.858;4.384;2023-01-28T17:45:11;4.90;99.90
22635;DHT22;11484;50.858;4.384;2023-01-28T17:47:38;4.90;99.90
22635;DHT22;11484;50.858;4.384;2023-01-28T17:50:05;4.80;99.90
22635;DHT22;11484;50.858;4.384;2023-01-28T17:52:31;4.80;99.90
22635;DHT22;11484;50.858;4.384;2023-01-28T17:54:57;4.80;99.90
22635;DHT22;11484;50.858;4.384;2023-01-28T17:57:23;4.70;99.90
22635;DHT22;11484;50.858;4.384;2023-01-28T17:59:49;4.70;99.90
22635;DHT22;11484;50.858;4.384;2023-01-28T18:02:15;4.70;99.90
22635;DHT22;11484;50.858;4.384;2023-01-28T18:04:43;4.70;99.90
22635;DHT22;11484;50.858;4.384;2023-01-28T18:07:09;4.70;99.90
22635;DHT22;11484;50.858;4.384;2023-01-28T18:09:39;4.70;99.90
22635;DHT22;11484;50.858;4.384;2023-01-28T18:12:07;4.70;99.90
22635;DHT22;11484;50.858;4.384;2023-01-28T18:14:36;4.70;99.90
22635;DHT22;11484;50.858;4.384;2023-01-28T18:17:02;4.80;99.90